ěÝzenÝ letovÚho provozu ╚eskÚ republiky
Letiste: LKPR Aktualizace: 22.01.2020 00:00:28  UTC
 METAR LKPR 22.01. 00:00 ...
METAR LKPR 220000Z 23006KT 2000 0900W R24/P2000N R30/1500D BR BCFG BKN002 M03/M04 Q1035 NOSIG RMK REG QNH 1029=
 TAF LKPR 21.01. 23:00 ...
TAF LKPR 212300Z 2200/2306 24010KT 1000 BR BKN002      TEMPO 2200/2205 2500 BR BKN004      BECMG 2205/2207 6000 SCT006 SCT025      BECMG 2211/2213 32006KT 9999 BKN025      TEMPO 2213/2220 -SN BKN016      BECMG 2220/2222 25004KT 5000 BR SCT002 BKN015      TEMPO 2222/2306 1000 BR BKN002=